TimeMST,TemperatureF,Dew PointF,Humidity,Sea Level PressureIn,VisibilityMPH,Wind Direction,Wind SpeedMPH,Gust SpeedMPH,PrecipitationIn,Events,Conditions,WindDirDegrees,DateUTC
12:53 AM,30.9,24.1,76,30.17,10.0,South,11.5,-,N/A,,Clear,190,2013-01-10 07:53:00
1:53 AM,33.1,25.0,72,30.12,10.0,South,12.7,-,N/A,,Clear,180,2013-01-10 08:53:00
2:53 AM,32.0,25.0,75,30.10,10.0,South,9.2,-,N/A,,Scattered Clouds,180,2013-01-10 09:53:00
3:01 AM,33.8,26.6,75,30.08,10.0,South,10.4,-,N/A,,Mostly Cloudy,180,2013-01-10 10:01:00
3:53 AM,34.0,26.1,73,30.05,10.0,South,6.9,-,N/A,,Overcast,170,2013-01-10 10:53:00
4:53 AM,35.1,26.1,70,30.04,10.0,South,10.4,-,N/A,,Overcast,170,2013-01-10 11:53:00
5:40 AM,33.8,26.6,75,29.98,10.0,South,3.5,-,N/A,,Overcast,180,2013-01-10 12:40:00
5:53 AM,34.0,27.0,75,30.02,10.0,SSW,3.5,-,N/A,,Overcast,210,2013-01-10 12:53:00
6:53 AM,33.1,30.9,92,30.02,3.0,WSW,6.9,-,N/A,,Overcast,250,2013-01-10 13:53:00
7:34 AM,33.8,30.2,87,29.95,7.0,SSW,4.6,-,N/A,,Overcast,200,2013-01-10 14:34:00
7:53 AM,33.1,30.9,92,29.97,9.0,South,4.6,-,N/A,,Overcast,190,2013-01-10 14:53:00
8:29 AM,33.8,30.2,87,29.92,1.8,South,6.9,-,N/A,,Overcast,170,2013-01-10 15:29:00
8:36 AM,33.8,32.0,93,29.91,1.2,South,9.2,-,N/A,,Overcast,170,2013-01-10 15:36:00
8:53 AM,33.1,32.0,96,29.96,0.8,SSE,9.2,-,N/A,,Overcast,160,2013-01-10 15:53:00
9:08 AM,33.8,32.0,93,29.90,1.0,South,6.9,-,N/A,,Overcast,190,2013-01-10 16:08:00
9:53 AM,33.1,32.0,96,29.93,1.2,SW,10.4,-,N/A,,Overcast,230,2013-01-10 16:53:00
10:23 AM,35.6,33.8,93,29.83,2.0,SW,9.2,-,N/A,,Overcast,220,2013-01-10 17:23:00
10:39 AM,37.4,33.8,87,29.82,5.0,South,5.8,-,N/A,,Overcast,190,2013-01-10 17:39:00
10:53 AM,37.0,33.1,86,29.86,10.0,South,6.9,-,N/A,,Overcast,190,2013-01-10 17:53:00
11:13 AM,37.4,33.8,87,29.78,10.0,South,10.4,-,N/A,,Overcast,170,2013-01-10 18:13:00
11:53 AM,37.9,33.1,83,29.78,10.0,South,13.8,-,N/A,,Overcast,170,2013-01-10 18:53:00
12:22 PM,39.2,33.8,81,29.72,10.0,South,17.3,-,N/A,,Scattered Clouds,180,2013-01-10 19:22:00
12:35 PM,39.2,33.8,81,29.72,10.0,South,13.8,-,N/A,,Mostly Cloudy,180,2013-01-10 19:35:00
12:53 PM,39.0,34.0,82,29.74,10.0,South,17.3,-,N/A,,Mostly Cloudy,170,2013-01-10 19:53:00
1:08 PM,39.2,35.6,87,29.69,10.0,South,18.4,-,N/A,,Scattered Clouds,170,2013-01-10 20:08:00
1:49 PM,39.2,35.6,87,29.69,10.0,South,15.0,-,N/A,,Mostly Cloudy,170,2013-01-10 20:49:00
1:53 PM,39.9,35.1,83,29.71,10.0,South,17.3,-,N/A,,Mostly Cloudy,180,2013-01-10 20:53:00
2:25 PM,42.8,35.6,76,29.68,10.0,South,16.1,-,N/A,,Partly Cloudy,170,2013-01-10 21:25:00
2:53 PM,42.1,36.0,79,29.70,10.0,South,18.4,-,N/A,,Partly Cloudy,180,2013-01-10 21:53:00
3:53 PM,41.0,36.0,82,29.68,10.0,South,12.7,-,N/A,,Clear,180,2013-01-10 22:53:00
4:53 PM,37.9,35.1,89,29.67,10.0,South,16.1,-,N/A,,Clear,180,2013-01-10 23:53:00
5:53 PM,36.0,33.1,89,29.65,10.0,South,18.4,-,N/A,,Clear,180,2013-01-11 00:53:00
6:06 PM,35.6,33.8,93,29.61,10.0,South,21.9,25.3,N/A,,Scattered Clouds,180,2013-01-11 01:06:00
6:11 PM,35.6,35.6,100,29.61,5.0,South,20.7,28.8,N/A,,Mostly Cloudy,190,2013-01-11 01:11:00
6:53 PM,37.9,36.0,93,29.62,5.0,South,16.1,26.5,N/A,,Overcast,180,2013-01-11 01:53:00
7:18 PM,37.4,35.6,93,29.57,1.8,South,24.2,27.6,N/A,,Overcast,180,2013-01-11 02:18:00
7:39 PM,35.6,35.6,100,29.56,0.8,South,21.9,-,N/A,,Mist,180,2013-01-11 02:39:00
7:53 PM,36.0,35.1,97,29.60,0.5,South,21.9,28.8,N/A,Fog,Fog,180,2013-01-11 02:53:00
8:53 PM,37.0,36.0,96,29.58,0.5,South,26.5,33.4,N/A,Fog,Fog,180,2013-01-11 03:53:00
9:41 PM,37.4,35.6,93,29.55,1.0,South,21.9,-,N/A,,Mist,190,2013-01-11 04:41:00
9:53 PM,37.0,37.0,100,29.57,1.0,South,21.9,28.8,N/A,,Overcast,190,2013-01-11 04:53:00
10:07 PM,37.4,35.6,93,29.53,0.8,South,23.0,31.1,N/A,,Mist,190,2013-01-11 05:07:00
10:53 PM,37.0,37.0,100,29.54,0.8,South,23.0,31.1,N/A,,Mist,180,2013-01-11 05:53:00
11:16 PM,37.4,35.6,93,29.51,1.0,South,23.0,-,N/A,,Mist,190,2013-01-11 06:16:00
11:49 PM,37.4,35.6,93,29.50,0.8,South,19.6,-,N/A,,Mist,190,2013-01-11 06:49:00
11:53 PM,36.0,36.0,100,29.51,0.8,South,21.9,-,N/A,,Mist,190,2013-01-11 06:53:00